sensor_id;sensor_type;location;lat;lon;timestamp;P1;durP1;ratioP1;P2;durP2;ratioP2
4519;SDS011;2272;49.226;8.108;2023-06-22T00:01:19;5.33;;;4.93;;
4519;SDS011;2272;49.226;8.108;2023-06-22T00:03:46;9.40;;;5.93;;
4519;SDS011;2272;49.226;8.108;2023-06-22T00:06:13;5.47;;;5.07;;
4519;SDS011;2272;49.226;8.108;2023-06-22T00:08:40;6.77;;;5.90;;
4519;SDS011;2272;49.226;8.108;2023-06-22T00:11:08;11.10;;;6.10;;
4519;SDS011;2272;49.226;8.108;2023-06-22T00:13:35;15.30;;;5.73;;
4519;SDS011;2272;49.226;8.108;2023-06-22T00:16:02;5.57;;;4.83;;
4519;SDS011;2272;49.226;8.108;2023-06-22T00:18:29;7.27;;;5.43;;
4519;SDS011;2272;49.226;8.108;2023-06-22T00:20:57;6.20;;;4.90;;
4519;SDS011;2272;49.226;8.108;2023-06-22T00:23:24;5.73;;;5.07;;
4519;SDS011;2272;49.226;8.108;2023-06-22T00:25:51;8.53;;;6.07;;
4519;SDS011;2272;49.226;8.108;2023-06-22T00:28:19;6.70;;;5.53;;
4519;SDS011;2272;49.226;8.108;2023-06-22T00:30:47;6.00;;;5.40;;
4519;SDS011;2272;49.226;8.108;2023-06-22T00:33:14;8.17;;;5.57;;
4519;SDS011;2272;49.226;8.108;2023-06-22T00:35:41;10.07;;;5.87;;
4519;SDS011;2272;49.226;8.108;2023-06-22T00:38:08;8.47;;;5.33;;
4519;SDS011;2272;49.226;8.108;2023-06-22T00:40:35;6.70;;;5.50;;
4519;SDS011;2272;49.226;8.108;2023-06-22T00:43:02;7.13;;;4.93;;
4519;SDS011;2272;49.226;8.108;2023-06-22T00:45:31;5.03;;;4.70;;
4519;SDS011;2272;49.226;8.108;2023-06-22T00:47:58;6.10;;;5.50;;
4519;SDS011;2272;49.226;8.108;2023-06-22T00:50:26;5.00;;;4.60;;
4519;SDS011;2272;49.226;8.108;2023-06-22T00:52:54;9.90;;;5.97;;
4519;SDS011;2272;49.226;8.108;2023-06-22T00:55:23;5.23;;;4.57;;
4519;SDS011;2272;49.226;8.108;2023-06-22T00:57:51;5.57;;;5.13;;
4519;SDS011;2272;49.226;8.108;2023-06-22T01:00:20;5.27;;;4.77;;
4519;SDS011;2272;49.226;8.108;2023-06-22T01:02:51;7.00;;;4.80;;
4519;SDS011;2272;49.226;8.108;2023-06-22T01:05:19;11.70;;;5.93;;
4519;SDS011;2272;49.226;8.108;2023-06-22T01:07:51;6.20;;;5.70;;
4519;SDS011;2272;49.226;8.108;2023-06-22T01:10:27;7.40;;;5.93;;
4519;SDS011;2272;49.226;8.108;2023-06-22T01:13:01;8.73;;;5.90;;
4519;SDS011;2272;49.226;8.108;2023-06-22T01:15:31;6.50;;;5.93;;
4519;SDS011;2272;49.226;8.108;2023-06-22T01:18:04;6.53;;;5.83;;
4519;SDS011;2272;49.226;8.108;2023-06-22T01:20:33;9.63;;;5.97;;
4519;SDS011;2272;49.226;8.108;2023-06-22T01:23:07;8.80;;;5.03;;
4519;SDS011;2272;49.226;8.108;2023-06-22T01:25:43;6.10;;;5.53;;
4519;SDS011;2272;49.226;8.108;2023-06-22T01:28:18;6.80;;;5.33;;
4519;SDS011;2272;49.226;8.108;2023-06-22T01:30:51;6.60;;;5.87;;
4519;SDS011;2272;49.226;8.108;2023-06-22T01:33:28;13.23;;;5.60;;
4519;SDS011;2272;49.226;8.108;2023-06-22T01:35:57;6.27;;;5.67;;
4519;SDS011;2272;49.226;8.108;2023-06-22T01:38:24;10.10;;;6.60;;
4519;SDS011;2272;49.226;8.108;2023-06-22T01:40:51;7.43;;;5.00;;
4519;SDS011;2272;49.226;8.108;2023-06-22T01:43:19;5.90;;;5.50;;
4519;SDS011;2272;49.226;8.108;2023-06-22T01:45:48;6.37;;;4.97;;
4519;SDS011;2272;49.226;8.108;2023-06-22T01:48:16;6.00;;;5.50;;
4519;SDS011;2272;49.226;8.108;2023-06-22T01:50:44;6.03;;;5.43;;
4519;SDS011;2272;49.226;8.108;2023-06-22T01:53:11;5.90;;;5.30;;
4519;SDS011;2272;49.226;8.108;2023-06-22T01:55:37;5.10;;;4.67;;
4519;SDS011;2272;49.226;8.108;2023-06-22T01:58:04;6.13;;;5.53;;
4519;SDS011;2272;49.226;8.108;2023-06-22T02:00:31;6.40;;;5.80;;
4519;SDS011;2272;49.226;8.108;2023-06-22T02:03:03;5.40;;;5.00;;
4519;SDS011;2272;49.226;8.108;2023-06-22T02:05:37;6.63;;;5.87;;
4519;SDS011;2272;49.226;8.108;2023-06-22T02:08:09;7.80;;;5.40;;
4519;SDS011;2272;49.226;8.108;2023-06-22T02:10:41;5.17;;;4.97;;
4519;SDS011;2272;49.226;8.108;2023-06-22T02:13:10;5.83;;;5.33;;
4519;SDS011;2272;49.226;8.108;2023-06-22T02:15:39;5.73;;;5.27;;
4519;SDS011;2272;49.226;8.108;2023-06-22T02:18:06;9.03;;;5.50;;
4519;SDS011;2272;49.226;8.108;2023-06-22T02:20:32;5.97;;;5.47;;
4519;SDS011;2272;49.226;8.108;2023-06-22T02:23:04;7.20;;;5.80;;
4519;SDS011;2272;49.226;8.108;2023-06-22T02:25:31;6.00;;;5.50;;
4519;SDS011;2272;49.226;8.108;2023-06-22T02:27:58;6.13;;;5.53;;
4519;SDS011;2272;49.226;8.108;2023-06-22T02:30:25;9.07;;;6.07;;
4519;SDS011;2272;49.226;8.108;2023-06-22T02:32:52;6.47;;;5.97;;
4519;SDS011;2272;49.226;8.108;2023-06-22T02:35:23;7.50;;;6.80;;
4519;SDS011;2272;49.226;8.108;2023-06-22T02:37:51;14.63;;;7.00;;
4519;SDS011;2272;49.226;8.108;2023-06-22T02:40:19;8.87;;;6.70;;
4519;SDS011;2272;49.226;8.108;2023-06-22T02:42:46;7.00;;;6.40;;
4519;SDS011;2272;49.226;8.108;2023-06-22T02:45:12;8.40;;;6.57;;
4519;SDS011;2272;49.226;8.108;2023-06-22T02:47:39;7.17;;;6.67;;
4519;SDS011;2272;49.226;8.108;2023-06-22T02:50:06;7.00;;;6.40;;
4519;SDS011;2272;49.226;8.108;2023-06-22T02:52:33;6.57;;;5.97;;
4519;SDS011;2272;49.226;8.108;2023-06-22T02:55:02;10.87;;;6.50;;
4519;SDS011;2272;49.226;8.108;2023-06-22T02:57:29;5.67;;;5.37;;
4519;SDS011;2272;49.226;8.108;2023-06-22T02:59:56;8.37;;;6.37;;
4519;SDS011;2272;49.226;8.108;2023-06-22T03:02:22;8.13;;;6.90;;
4519;SDS011;2272;49.226;8.108;2023-06-22T03:04:51;7.70;;;6.97;;
4519;SDS011;2272;49.226;8.108;2023-06-22T03:07:18;9.60;;;6.23;;
4519;SDS011;2272;49.226;8.108;2023-06-22T03:09:45;9.43;;;7.73;;
4519;SDS011;2272;49.226;8.108;2023-06-22T03:12:13;11.20;;;8.37;;
4519;SDS011;2272;49.226;8.108;2023-06-22T03:14:40;10.33;;;8.23;;
4519;SDS011;2272;49.226;8.108;2023-06-22T03:17:07;9.50;;;7.50;;
4519;SDS011;2272;49.226;8.108;2023-06-22T03:19:33;8.07;;;7.27;;
4519;SDS011;2272;49.226;8.108;2023-06-22T03:22:00;8.60;;;7.80;;
4519;SDS011;2272;49.226;8.108;2023-06-22T03:24:27;8.03;;;7.23;;
4519;SDS011;2272;49.226;8.108;2023-06-22T03:26:54;8.43;;;7.70;;
4519;SDS011;2272;49.226;8.108;2023-06-22T03:29:22;9.57;;;8.37;;
4519;SDS011;2272;49.226;8.108;2023-06-22T03:31:50;8.33;;;7.20;;
4519;SDS011;2272;49.226;8.108;2023-06-22T03:34:17;13.43;;;8.83;;
4519;SDS011;2272;49.226;8.108;2023-06-22T03:36:44;8.60;;;7.80;;
4519;SDS011;2272;49.226;8.108;2023-06-22T03:39:11;9.20;;;6.57;;
4519;SDS011;2272;49.226;8.108;2023-06-22T03:41:38;7.10;;;6.50;;
4519;SDS011;2272;49.226;8.108;2023-06-22T03:44:04;10.53;;;7.30;;
4519;SDS011;2272;49.226;8.108;2023-06-22T03:46:32;7.63;;;7.00;;
4519;SDS011;2272;49.226;8.108;2023-06-22T03:48:59;9.10;;;6.80;;
4519;SDS011;2272;49.226;8.108;2023-06-22T03:51:28;7.80;;;6.63;;
4519;SDS011;2272;49.226;8.108;2023-06-22T03:53:55;10.30;;;7.23;;
4519;SDS011;2272;49.226;8.108;2023-06-22T03:56:21;7.90;;;6.43;;
4519;SDS011;2272;49.226;8.108;2023-06-22T03:58:48;7.40;;;6.53;;
4519;SDS011;2272;49.226;8.108;2023-06-22T04:01:15;8.30;;;7.53;;
4519;SDS011;2272;49.226;8.108;2023-06-22T04:03:44;9.87;;;7.27;;
4519;SDS011;2272;49.226;8.108;2023-06-22T04:06:13;8.10;;;7.30;;
4519;SDS011;2272;49.226;8.108;2023-06-22T04:08:40;8.70;;;7.80;;
4519;SDS011;2272;49.226;8.108;2023-06-22T04:11:07;8.33;;;7.50;;
4519;SDS011;2272;49.226;8.108;2023-06-22T04:13:34;13.37;;;8.03;;
4519;SDS011;2272;49.226;8.108;2023-06-22T04:16:01;8.17;;;7.40;;
4519;SDS011;2272;49.226;8.108;2023-06-22T04:18:29;9.10;;;8.30;;
4519;SDS011;2272;49.226;8.108;2023-06-22T04:20:57;9.53;;;8.67;;
4519;SDS011;2272;49.226;8.108;2023-06-22T04:23:23;10.47;;;9.00;;
4519;SDS011;2272;49.226;8.108;2023-06-22T04:25:50;9.47;;;8.67;;
4519;SDS011;2272;49.226;8.108;2023-06-22T04:28:17;9.83;;;8.90;;
4519;SDS011;2272;49.226;8.108;2023-06-22T04:30:44;9.50;;;8.70;;
4519;SDS011;2272;49.226;8.108;2023-06-22T04:33:12;9.67;;;8.63;;
4519;SDS011;2272;49.226;8.108;2023-06-22T04:35:39;8.70;;;8.00;;
4519;SDS011;2272;49.226;8.108;2023-06-22T04:38:08;10.20;;;9.30;;
4519;SDS011;2272;49.226;8.108;2023-06-22T04:40:38;9.97;;;8.40;;
4519;SDS011;2272;49.226;8.108;2023-06-22T04:43:05;9.83;;;8.50;;
4519;SDS011;2272;49.226;8.108;2023-06-22T04:45:31;9.00;;;7.37;;
4519;SDS011;2272;49.226;8.108;2023-06-22T04:47:58;9.67;;;8.67;;
4519;SDS011;2272;49.226;8.108;2023-06-22T04:50:25;11.10;;;9.20;;
4519;SDS011;2272;49.226;8.108;2023-06-22T04:52:52;10.77;;;9.67;;
4519;SDS011;2272;49.226;8.108;2023-06-22T04:55:20;11.63;;;10.30;;
4519;SDS011;2272;49.226;8.108;2023-06-22T04:57:47;11.93;;;9.70;;
4519;SDS011;2272;49.226;8.108;2023-06-22T05:00:15;17.60;;;10.70;;
4519;SDS011;2272;49.226;8.108;2023-06-22T05:02:43;11.17;;;10.03;;
4519;SDS011;2272;49.226;8.108;2023-06-22T05:05:11;15.37;;;12.00;;
4519;SDS011;2272;49.226;8.108;2023-06-22T05:07:39;12.03;;;10.80;;
4519;SDS011;2272;49.226;8.108;2023-06-22T05:10:08;14.10;;;11.60;;
4519;SDS011;2272;49.226;8.108;2023-06-22T05:12:37;11.60;;;10.43;;
4519;SDS011;2272;49.226;8.108;2023-06-22T05:15:05;11.87;;;10.63;;
4519;SDS011;2272;49.226;8.108;2023-06-22T05:17:32;11.87;;;10.53;;
4519;SDS011;2272;49.226;8.108;2023-06-22T05:19:59;11.63;;;10.43;;
4519;SDS011;2272;49.226;8.108;2023-06-22T05:22:26;11.80;;;10.37;;
4519;SDS011;2272;49.226;8.108;2023-06-22T05:24:53;13.73;;;11.70;;
4519;SDS011;2272;49.226;8.108;2023-06-22T05:27:20;12.17;;;10.87;;
4519;SDS011;2272;49.226;8.108;2023-06-22T05:29:48;10.03;;;9.03;;
4519;SDS011;2272;49.226;8.108;2023-06-22T05:32:15;14.40;;;9.60;;
4519;SDS011;2272;49.226;8.108;2023-06-22T05:34:41;13.80;;;10.80;;
4519;SDS011;2272;49.226;8.108;2023-06-22T05:37:08;15.30;;;11.80;;
4519;SDS011;2272;49.226;8.108;2023-06-22T05:39:35;15.23;;;10.87;;
4519;SDS011;2272;49.226;8.108;2023-06-22T05:42:03;13.23;;;11.67;;
4519;SDS011;2272;49.226;8.108;2023-06-22T05:44:31;14.57;;;11.50;;
4519;SDS011;2272;49.226;8.108;2023-06-22T05:46:59;15.97;;;11.37;;
4519;SDS011;2272;49.226;8.108;2023-06-22T05:49:26;12.90;;;10.00;;
4519;SDS011;2272;49.226;8.108;2023-06-22T05:51:54;13.37;;;10.93;;
4519;SDS011;2272;49.226;8.108;2023-06-22T05:54:21;13.10;;;10.67;;
4519;SDS011;2272;49.226;8.108;2023-06-22T05:56:48;11.90;;;10.70;;
4519;SDS011;2272;49.226;8.108;2023-06-22T05:59:15;14.73;;;10.83;;
4519;SDS011;2272;49.226;8.108;2023-06-22T06:01:41;11.93;;;10.30;;
4519;SDS011;2272;49.226;8.108;2023-06-22T06:04:09;22.60;;;10.60;;
4519;SDS011;2272;49.226;8.108;2023-06-22T06:06:36;19.40;;;11.00;;
4519;SDS011;2272;49.226;8.108;2023-06-22T06:09:03;16.30;;;11.70;;
4519;SDS011;2272;49.226;8.108;2023-06-22T06:11:30;14.47;;;8.60;;
4519;SDS011;2272;49.226;8.108;2023-06-22T06:13:57;15.53;;;10.67;;
4519;SDS011;2272;49.226;8.108;2023-06-22T06:16:23;14.93;;;10.53;;
4519;SDS011;2272;49.226;8.108;2023-06-22T06:18:50;14.83;;;10.23;;
4519;SDS011;2272;49.226;8.108;2023-06-22T06:21:19;8.70;;;7.77;;
4519;SDS011;2272;49.226;8.108;2023-06-22T06:23:46;11.13;;;9.83;;
4519;SDS011;2272;49.226;8.108;2023-06-22T06:26:13;14.70;;;9.43;;
4519;SDS011;2272;49.226;8.108;2023-06-22T06:28:41;26.70;;;10.50;;
4519;SDS011;2272;49.226;8.108;2023-06-22T06:31:08;19.03;;;10.20;;
4519;SDS011;2272;49.226;8.108;2023-06-22T06:33:36;13.03;;;9.37;;
4519;SDS011;2272;49.226;8.108;2023-06-22T06:36:03;9.97;;;8.97;;
4519;SDS011;2272;49.226;8.108;2023-06-22T06:38:31;19.30;;;10.23;;
4519;SDS011;2272;49.226;8.108;2023-06-22T06:40:57;13.10;;;9.57;;
4519;SDS011;2272;49.226;8.108;2023-06-22T06:43:24;16.10;;;9.43;;
4519;SDS011;2272;49.226;8.108;2023-06-22T06:45:51;14.30;;;9.37;;
4519;SDS011;2272;49.226;8.108;2023-06-22T06:48:18;13.07;;;10.10;;
4519;SDS011;2272;49.226;8.108;2023-06-22T06:50:45;11.77;;;9.80;;
4519;SDS011;2272;49.226;8.108;2023-06-22T06:53:12;11.00;;;9.90;;
4519;SDS011;2272;49.226;8.108;2023-06-22T06:55:40;15.67;;;9.80;;
4519;SDS011;2272;49.226;8.108;2023-06-22T06:58:07;15.40;;;10.20;;
4519;SDS011;2272;49.226;8.108;2023-06-22T07:00:34;13.10;;;11.80;;
4519;SDS011;2272;49.226;8.108;2023-06-22T07:03:01;12.37;;;10.23;;
4519;SDS011;2272;49.226;8.108;2023-06-22T07:05:28;10.37;;;9.37;;
4519;SDS011;2272;49.226;8.108;2023-06-22T07:07:55;13.47;;;11.00;;
4519;SDS011;2272;49.226;8.108;2023-06-22T07:10:22;10.00;;;8.40;;
4519;SDS011;2272;49.226;8.108;2023-06-22T07:12:50;13.53;;;9.43;;
4519;SDS011;2272;49.226;8.108;2023-06-22T07:15:16;13.37;;;10.23;;
4519;SDS011;2272;49.226;8.108;2023-06-22T07:17:43;10.37;;;9.47;;
4519;SDS011;2272;49.226;8.108;2023-06-22T07:20:10;15.00;;;10.40;;
4519;SDS011;2272;49.226;8.108;2023-06-22T07:22:37;12.00;;;8.40;;
4519;SDS011;2272;49.226;8.108;2023-06-22T07:25:05;13.10;;;9.40;;
4519;SDS011;2272;49.226;8.108;2023-06-22T07:27:35;8.80;;;7.90;;
4519;SDS011;2272;49.226;8.108;2023-06-22T07:30:05;14.60;;;11.27;;
4519;SDS011;2272;49.226;8.108;2023-06-22T07:32:33;10.63;;;9.63;;
4519;SDS011;2272;49.226;8.108;2023-06-22T07:35:01;14.40;;;9.60;;
4519;SDS011;2272;49.226;8.108;2023-06-22T07:37:29;13.90;;;10.30;;
4519;SDS011;2272;49.226;8.108;2023-06-22T07:39:59;10.83;;;7.80;;
4519;SDS011;2272;49.226;8.108;2023-06-22T07:42:25;10.07;;;8.70;;
4519;SDS011;2272;49.226;8.108;2023-06-22T07:44:53;11.67;;;9.93;;
4519;SDS011;2272;49.226;8.108;2023-06-22T07:47:22;9.70;;;8.90;;
4519;SDS011;2272;49.226;8.108;2023-06-22T07:49:50;10.07;;;8.20;;
4519;SDS011;2272;49.226;8.108;2023-06-22T07:52:19;8.73;;;7.83;;
4519;SDS011;2272;49.226;8.108;2023-06-22T07:54:46;10.20;;;8.37;;
4519;SDS011;2272;49.226;8.108;2023-06-22T07:57:13;13.70;;;6.53;;
4519;SDS011;2272;49.226;8.108;2023-06-22T07:59:40;9.43;;;6.73;;
4519;SDS011;2272;49.226;8.108;2023-06-22T08:02:06;16.40;;;8.93;;
4519;SDS011;2272;49.226;8.108;2023-06-22T08:04:35;11.43;;;7.97;;
4519;SDS011;2272;49.226;8.108;2023-06-22T08:07:02;14.27;;;8.20;;
4519;SDS011;2272;49.226;8.108;2023-06-22T08:09:30;9.30;;;7.13;;
4519;SDS011;2272;49.226;8.108;2023-06-22T08:11:57;12.67;;;7.20;;
4519;SDS011;2272;49.226;8.108;2023-06-22T08:14:25;8.23;;;7.10;;
4519;SDS011;2272;49.226;8.108;2023-06-22T08:16:52;11.30;;;8.10;;
4519;SDS011;2272;49.226;8.108;2023-06-22T08:19:18;14.77;;;7.77;;
4519;SDS011;2272;49.226;8.108;2023-06-22T08:21:46;8.90;;;7.10;;
4519;SDS011;2272;49.226;8.108;2023-06-22T08:24:13;11.80;;;7.90;;
4519;SDS011;2272;49.226;8.108;2023-06-22T08:26:40;6.97;;;6.23;;
4519;SDS011;2272;49.226;8.108;2023-06-22T08:29:06;6.83;;;5.93;;
4519;SDS011;2272;49.226;8.108;2023-06-22T08:31:34;6.67;;;6.00;;
4519;SDS011;2272;49.226;8.108;2023-06-22T08:34:00;8.03;;;6.00;;
4519;SDS011;2272;49.226;8.108;2023-06-22T08:36:27;6.17;;;5.57;;
4519;SDS011;2272;49.226;8.108;2023-06-22T08:39:01;5.60;;;5.10;;
4519;SDS011;2272;49.226;8.108;2023-06-22T08:41:28;11.50;;;5.90;;
4519;SDS011;2272;49.226;8.108;2023-06-22T08:43:55;7.17;;;6.50;;
4519;SDS011;2272;49.226;8.108;2023-06-22T08:46:22;6.13;;;5.20;;
4519;SDS011;2272;49.226;8.108;2023-06-22T08:48:55;14.73;;;6.70;;
4519;SDS011;2272;49.226;8.108;2023-06-22T08:51:22;6.07;;;5.37;;
4519;SDS011;2272;49.226;8.108;2023-06-22T08:53:48;6.77;;;4.93;;
4519;SDS011;2272;49.226;8.108;2023-06-22T08:56:16;9.23;;;6.37;;
4519;SDS011;2272;49.226;8.108;2023-06-22T08:58:43;11.80;;;6.10;;
4519;SDS011;2272;49.226;8.108;2023-06-22T09:01:10;8.50;;;6.50;;
4519;SDS011;2272;49.226;8.108;2023-06-22T09:03:37;8.63;;;6.10;;
4519;SDS011;2272;49.226;8.108;2023-06-22T09:06:04;10.43;;;5.93;;
4519;SDS011;2272;49.226;8.108;2023-06-22T09:08:30;11.60;;;6.20;;
4519;SDS011;2272;49.226;8.108;2023-06-22T09:10:57;9.43;;;6.13;;
4519;SDS011;2272;49.226;8.108;2023-06-22T09:13:25;6.83;;;5.93;;
4519;SDS011;2272;49.226;8.108;2023-06-22T09:15:52;9.37;;;7.00;;
4519;SDS011;2272;49.226;8.108;2023-06-22T09:18:19;12.27;;;6.33;;
4519;SDS011;2272;49.226;8.108;2023-06-22T09:20:45;10.33;;;5.70;;
4519;SDS011;2272;49.226;8.108;2023-06-22T09:23:12;6.23;;;5.30;;
4519;SDS011;2272;49.226;8.108;2023-06-22T09:25:39;6.57;;;6.00;;
4519;SDS011;2272;49.226;8.108;2023-06-22T09:28:06;8.97;;;5.67;;
4519;SDS011;2272;49.226;8.108;2023-06-22T09:30:34;5.90;;;5.10;;
4519;SDS011;2272;49.226;8.108;2023-06-22T09:33:01;8.97;;;6.27;;
4519;SDS011;2272;49.226;8.108;2023-06-22T09:35:28;8.37;;;5.73;;
4519;SDS011;2272;49.226;8.108;2023-06-22T09:37:54;6.73;;;5.93;;
4519;SDS011;2272;49.226;8.108;2023-06-22T09:40:21;11.33;;;6.07;;
4519;SDS011;2272;49.226;8.108;2023-06-22T09:42:48;9.43;;;8.20;;
4519;SDS011;2272;49.226;8.108;2023-06-22T09:45:14;7.10;;;5.87;;
4519;SDS011;2272;49.226;8.108;2023-06-22T09:47:42;8.90;;;5.87;;
4519;SDS011;2272;49.226;8.108;2023-06-22T09:50:09;12.27;;;6.30;;
4519;SDS011;2272;49.226;8.108;2023-06-22T09:52:36;10.27;;;5.90;;
4519;SDS011;2272;49.226;8.108;2023-06-22T09:55:03;7.00;;;6.20;;
4519;SDS011;2272;49.226;8.108;2023-06-22T09:57:31;6.60;;;6.00;;
4519;SDS011;2272;49.226;8.108;2023-06-22T09:59:58;9.10;;;6.87;;
4519;SDS011;2272;49.226;8.108;2023-06-22T10:02:24;9.27;;;4.80;;
4519;SDS011;2272;49.226;8.108;2023-06-22T10:04:52;8.00;;;5.97;;
4519;SDS011;2272;49.226;8.108;2023-06-22T10:07:19;8.90;;;6.97;;
4519;SDS011;2272;49.226;8.108;2023-06-22T10:09:46;8.73;;;5.90;;
4519;SDS011;2272;49.226;8.108;2023-06-22T10:12:12;9.77;;;5.80;;
4519;SDS011;2272;49.226;8.108;2023-06-22T10:14:39;8.53;;;5.83;;
4519;SDS011;2272;49.226;8.108;2023-06-22T10:17:06;8.47;;;5.93;;
4519;SDS011;2272;49.226;8.108;2023-06-22T10:19:33;13.13;;;6.37;;
4519;SDS011;2272;49.226;8.108;2023-06-22T10:22:03;7.80;;;6.07;;
4519;SDS011;2272;49.226;8.108;2023-06-22T10:24:31;6.90;;;5.63;;
4519;SDS011;2272;49.226;8.108;2023-06-22T10:26:57;7.37;;;6.67;;
4519;SDS011;2272;49.226;8.108;2023-06-22T10:29:24;6.53;;;6.00;;
4519;SDS011;2272;49.226;8.108;2023-06-22T10:31:51;6.50;;;5.73;;
4519;SDS011;2272;49.226;8.108;2023-06-22T10:34:18;7.43;;;6.70;;
4519;SDS011;2272;49.226;8.108;2023-06-22T10:36:44;5.97;;;5.33;;
4519;SDS011;2272;49.226;8.108;2023-06-22T10:39:14;8.10;;;6.50;;
4519;SDS011;2272;49.226;8.108;2023-06-22T10:41:41;7.50;;;6.57;;
4519;SDS011;2272;49.226;8.108;2023-06-22T10:44:08;21.90;;;6.37;;
4519;SDS011;2272;49.226;8.108;2023-06-22T10:46:35;10.60;;;6.40;;
4519;SDS011;2272;49.226;8.108;2023-06-22T10:49:01;17.97;;;7.77;;
4519;SDS011;2272;49.226;8.108;2023-06-22T10:51:28;10.20;;;5.97;;
4519;SDS011;2272;49.226;8.108;2023-06-22T10:53:56;7.10;;;5.30;;
4519;SDS011;2272;49.226;8.108;2023-06-22T10:56:24;6.30;;;5.37;;
4519;SDS011;2272;49.226;8.108;2023-06-22T10:58:51;9.37;;;5.20;;
4519;SDS011;2272;49.226;8.108;2023-06-22T11:01:18;11.73;;;6.30;;
4519;SDS011;2272;49.226;8.108;2023-06-22T11:03:45;9.40;;;5.47;;
4519;SDS011;2272;49.226;8.108;2023-06-22T11:06:11;9.00;;;5.87;;
4519;SDS011;2272;49.226;8.108;2023-06-22T11:08:39;12.27;;;5.47;;
4519;SDS011;2272;49.226;8.108;2023-06-22T11:11:06;10.13;;;5.60;;
4519;SDS011;2272;49.226;8.108;2023-06-22T11:13:34;6.30;;;5.50;;
4519;SDS011;2272;49.226;8.108;2023-06-22T11:16:01;9.33;;;5.60;;
4519;SDS011;2272;49.226;8.108;2023-06-22T11:18:27;5.73;;;5.07;;
4519;SDS011;2272;49.226;8.108;2023-06-22T11:20:54;5.13;;;4.63;;
4519;SDS011;2272;49.226;8.108;2023-06-22T11:23:21;10.27;;;5.93;;
4519;SDS011;2272;49.226;8.108;2023-06-22T11:25:47;8.87;;;5.27;;
4519;SDS011;2272;49.226;8.108;2023-06-22T11:28:14;16.33;;;5.60;;
4519;SDS011;2272;49.226;8.108;2023-06-22T11:30:42;11.73;;;5.53;;
4519;SDS011;2272;49.226;8.108;2023-06-22T11:33:09;11.87;;;5.37;;
4519;SDS011;2272;49.226;8.108;2023-06-22T11:35:36;6.47;;;5.50;;
4519;SDS011;2272;49.226;8.108;2023-06-22T11:38:02;7.77;;;4.97;;
4519;SDS011;2272;49.226;8.108;2023-06-22T11:40:29;10.60;;;4.60;;
4519;SDS011;2272;49.226;8.108;2023-06-22T11:42:56;10.37;;;5.10;;
4519;SDS011;2272;49.226;8.108;2023-06-22T11:45:23;7.87;;;4.73;;
4519;SDS011;2272;49.226;8.108;2023-06-22T11:47:51;8.97;;;5.30;;
4519;SDS011;2272;49.226;8.108;2023-06-22T11:50:18;8.17;;;5.00;;
4519;SDS011;2272;49.226;8.108;2023-06-22T11:52:45;6.70;;;5.43;;
4519;SDS011;2272;49.226;8.108;2023-06-22T11:55:11;7.57;;;4.47;;
4519;SDS011;2272;49.226;8.108;2023-06-22T11:57:38;11.50;;;5.70;;
4519;SDS011;2272;49.226;8.108;2023-06-22T12:00:19;24.40;;;6.50;;
4519;SDS011;2272;49.226;8.108;2023-06-22T12:02:48;5.70;;;4.93;;
4519;SDS011;2272;49.226;8.108;2023-06-22T12:05:16;5.60;;;4.40;;
4519;SDS011;2272;49.226;8.108;2023-06-22T12:07:42;8.80;;;4.57;;
4519;SDS011;2272;49.226;8.108;2023-06-22T12:10:09;8.40;;;4.93;;
4519;SDS011;2272;49.226;8.108;2023-06-22T12:12:36;9.27;;;5.07;;
4519;SDS011;2272;49.226;8.108;2023-06-22T12:15:03;4.53;;;4.13;;
4519;SDS011;2272;49.226;8.108;2023-06-22T12:17:30;7.50;;;4.90;;
4519;SDS011;2272;49.226;8.108;2023-06-22T12:19:58;7.60;;;4.97;;
4519;SDS011;2272;49.226;8.108;2023-06-22T12:22:26;7.73;;;5.37;;
4519;SDS011;2272;49.226;8.108;2023-06-22T12:24:52;7.87;;;4.90;;
4519;SDS011;2272;49.226;8.108;2023-06-22T12:27:19;15.07;;;5.60;;
4519;SDS011;2272;49.226;8.108;2023-06-22T12:29:46;6.63;;;4.87;;
4519;SDS011;2272;49.226;8.108;2023-06-22T12:32:13;7.93;;;5.50;;
4519;SDS011;2272;49.226;8.108;2023-06-22T12:34:41;6.20;;;4.60;;
4519;SDS011;2272;49.226;8.108;2023-06-22T12:37:08;8.27;;;5.33;;
4519;SDS011;2272;49.226;8.108;2023-06-22T12:39:36;7.97;;;5.70;;
4519;SDS011;2272;49.226;8.108;2023-06-22T12:42:05;10.70;;;5.80;;
4519;SDS011;2272;49.226;8.108;2023-06-22T12:44:33;8.10;;;5.43;;
4519;SDS011;2272;49.226;8.108;2023-06-22T12:47:00;9.27;;;5.10;;
4519;SDS011;2272;49.226;8.108;2023-06-22T12:49:27;8.77;;;5.40;;
4519;SDS011;2272;49.226;8.108;2023-06-22T12:51:53;11.60;;;5.60;;
4519;SDS011;2272;49.226;8.108;2023-06-22T12:54:20;8.70;;;5.93;;
4519;SDS011;2272;49.226;8.108;2023-06-22T12:56:49;10.43;;;5.57;;
4519;SDS011;2272;49.226;8.108;2023-06-22T12:59:16;11.20;;;5.90;;
4519;SDS011;2272;49.226;8.108;2023-06-22T13:01:43;16.33;;;4.90;;
4519;SDS011;2272;49.226;8.108;2023-06-22T13:04:10;16.13;;;4.97;;
4519;SDS011;2272;49.226;8.108;2023-06-22T13:06:39;6.07;;;5.40;;
4519;SDS011;2272;49.226;8.108;2023-06-22T13:09:06;12.27;;;5.37;;
4519;SDS011;2272;49.226;8.108;2023-06-22T13:11:33;16.00;;;6.50;;
4519;SDS011;2272;49.226;8.108;2023-06-22T13:14:01;9.33;;;5.20;;
4519;SDS011;2272;49.226;8.108;2023-06-22T13:16:28;8.47;;;5.47;;
4519;SDS011;2272;49.226;8.108;2023-06-22T13:18:55;7.70;;;5.03;;
4519;SDS011;2272;49.226;8.108;2023-06-22T13:21:22;14.73;;;6.33;;
4519;SDS011;2272;49.226;8.108;2023-06-22T13:23:48;12.83;;;6.70;;
4519;SDS011;2272;49.226;8.108;2023-06-22T13:26:15;12.17;;;5.70;;
4519;SDS011;2272;49.226;8.108;2023-06-22T13:28:42;8.67;;;5.30;;
4519;SDS011;2272;49.226;8.108;2023-06-22T13:31:10;5.50;;;5.00;;
4519;SDS011;2272;49.226;8.108;2023-06-22T13:33:37;15.77;;;5.40;;
4519;SDS011;2272;49.226;8.108;2023-06-22T13:36:05;10.50;;;5.90;;
4519;SDS011;2272;49.226;8.108;2023-06-22T13:38:32;18.20;;;6.93;;
4519;SDS011;2272;49.226;8.108;2023-06-22T13:40:59;10.43;;;5.30;;
4519;SDS011;2272;49.226;8.108;2023-06-22T13:43:26;10.27;;;5.07;;
4519;SDS011;2272;49.226;8.108;2023-06-22T13:45:53;7.77;;;4.83;;
4519;SDS011;2272;49.226;8.108;2023-06-22T13:48:21;10.53;;;5.97;;
4519;SDS011;2272;49.226;8.108;2023-06-22T13:50:48;12.83;;;5.53;;
4519;SDS011;2272;49.226;8.108;2023-06-22T13:53:15;16.33;;;6.17;;
4519;SDS011;2272;49.226;8.108;2023-06-22T13:55:42;26.00;;;6.57;;
4519;SDS011;2272;49.226;8.108;2023-06-22T13:58:08;24.60;;;6.30;;
4519;SDS011;2272;49.226;8.108;2023-06-22T14:00:35;14.87;;;6.80;;
4519;SDS011;2272;49.226;8.108;2023-06-22T14:03:02;16.70;;;8.67;;
4519;SDS011;2272;49.226;8.108;2023-06-22T14:05:30;13.90;;;7.80;;
4519;SDS011;2272;49.226;8.108;2023-06-22T14:07:57;19.20;;;8.43;;
4519;SDS011;2272;49.226;8.108;2023-06-22T14:10:23;13.10;;;7.07;;
4519;SDS011;2272;49.226;8.108;2023-06-22T14:12:50;12.27;;;7.00;;
4519;SDS011;2272;49.226;8.108;2023-06-22T14:15:18;16.33;;;7.97;;
4519;SDS011;2272;49.226;8.108;2023-06-22T14:17:45;14.10;;;7.97;;
4519;SDS011;2272;49.226;8.108;2023-06-22T14:20:11;23.57;;;7.47;;
4519;SDS011;2272;49.226;8.108;2023-06-22T14:22:39;12.87;;;7.03;;
4519;SDS011;2272;49.226;8.108;2023-06-22T14:25:07;15.13;;;6.20;;
4519;SDS011;2272;49.226;8.108;2023-06-22T14:27:34;9.47;;;5.87;;
4519;SDS011;2272;49.226;8.108;2023-06-22T14:30:01;12.90;;;6.30;;
4519;SDS011;2272;49.226;8.108;2023-06-22T14:32:28;13.73;;;7.10;;
4519;SDS011;2272;49.226;8.108;2023-06-22T14:34:55;9.53;;;6.20;;
4519;SDS011;2272;49.226;8.108;2023-06-22T14:37:22;10.77;;;6.50;;
4519;SDS011;2272;49.226;8.108;2023-06-22T14:39:50;16.80;;;6.63;;
4519;SDS011;2272;49.226;8.108;2023-06-22T14:42:17;17.97;;;7.30;;
4519;SDS011;2272;49.226;8.108;2023-06-22T14:44:43;21.10;;;7.53;;
4519;SDS011;2272;49.226;8.108;2023-06-22T14:47:10;12.30;;;6.47;;
4519;SDS011;2272;49.226;8.108;2023-06-22T14:49:37;17.57;;;7.67;;
4519;SDS011;2272;49.226;8.108;2023-06-22T14:52:04;15.87;;;7.60;;
4519;SDS011;2272;49.226;8.108;2023-06-22T14:54:31;20.03;;;7.80;;
4519;SDS011;2272;49.226;8.108;2023-06-22T14:56:59;15.90;;;7.73;;
4519;SDS011;2272;49.226;8.108;2023-06-22T14:59:25;12.10;;;6.80;;
4519;SDS011;2272;49.226;8.108;2023-06-22T15:01:52;15.40;;;6.93;;
4519;SDS011;2272;49.226;8.108;2023-06-22T15:04:19;13.10;;;8.57;;
4519;SDS011;2272;49.226;8.108;2023-06-22T15:06:45;21.80;;;6.70;;
4519;SDS011;2272;49.226;8.108;2023-06-22T15:09:12;17.67;;;6.83;;